createdAt,value
2022-12-25T00:00:02.268Z,7.60
2022-12-25T00:02:32.043Z,7.70
2022-12-25T00:04:59.648Z,7.60
2022-12-25T00:07:27.088Z,7.50
2022-12-25T00:09:54.633Z,7.50
2022-12-25T00:12:23.114Z,7.50
2022-12-25T00:14:50.610Z,7.50
2022-12-25T00:17:18.059Z,7.50
2022-12-25T00:19:45.615Z,7.50
2022-12-25T00:22:13.175Z,7.50
2022-12-25T00:24:40.847Z,7.60
2022-12-25T00:27:08.571Z,7.60
2022-12-25T00:29:36.366Z,7.50
2022-12-25T00:32:03.912Z,7.60
2022-12-25T00:34:31.342Z,7.60
2022-12-25T00:36:58.995Z,7.60
2022-12-25T00:39:26.623Z,7.60
2022-12-25T00:42:12.809Z,7.70
2022-12-25T00:44:40.227Z,7.60
2022-12-25T00:47:07.666Z,7.70
2022-12-25T00:49:35.225Z,7.70
2022-12-25T00:52:02.668Z,7.70
2022-12-25T00:54:30.206Z,7.80
2022-12-25T00:56:57.785Z,7.80
2022-12-25T00:59:25.289Z,7.80
2022-12-25T01:01:52.964Z,7.80
2022-12-25T01:04:20.578Z,7.80
2022-12-25T01:06:47.967Z,7.90
2022-12-25T01:09:34.160Z,7.90
2022-12-25T01:12:01.643Z,7.90
2022-12-25T01:14:29.121Z,7.90
2022-12-25T01:16:56.628Z,7.90
2022-12-25T01:19:24.081Z,7.90
2022-12-25T01:21:51.596Z,7.90
2022-12-25T01:24:19.048Z,8.00
2022-12-25T01:26:46.577Z,7.90
2022-12-25T01:29:14.044Z,7.90
2022-12-25T01:31:41.624Z,7.90
2022-12-25T01:34:09.262Z,7.60
2022-12-25T01:36:36.760Z,7.60
2022-12-25T01:39:04.648Z,7.50
2022-12-25T01:41:32.058Z,7.40
2022-12-25T01:44:01.222Z,7.40
2022-12-25T01:46:29.520Z,7.30
2022-12-25T01:48:59.241Z,7.30
2022-12-25T01:51:29.058Z,7.30
2022-12-25T01:53:58.181Z,7.20
2022-12-25T01:56:26.678Z,7.20
2022-12-25T01:58:54.861Z,7.10
2022-12-25T02:01:22.458Z,6.90
2022-12-25T02:03:50.046Z,6.90
2022-12-25T02:06:17.657Z,6.70
2022-12-25T02:08:45.839Z,6.70
2022-12-25T02:11:33.628Z,6.60
2022-12-25T02:14:01.244Z,6.60
2022-12-25T02:16:31.820Z,6.60
2022-12-25T02:19:03.347Z,6.60
2022-12-25T02:22:03.400Z,6.70
2022-12-25T02:24:33.725Z,6.80
2022-12-25T02:27:04.165Z,6.60
2022-12-25T02:29:34.740Z,6.60
2022-12-25T02:32:22.440Z,6.50
2022-12-25T02:34:52.874Z,6.40
2022-12-25T02:37:26.522Z,6.40
2022-12-25T02:40:32.482Z,6.60
2022-12-25T02:43:20.832Z,6.70
2022-12-25T02:46:26.442Z,6.70
2022-12-25T02:49:14.202Z,6.70
2022-12-25T02:52:03.337Z,6.70
2022-12-25T02:54:51.026Z,6.70
2022-12-25T02:57:39.013Z,6.60
2022-12-25T03:00:25.431Z,6.60
2022-12-25T03:03:11.754Z,6.50
2022-12-25T03:05:59.269Z,6.40
2022-12-25T03:08:40.125Z,6.40
2022-12-25T03:11:27.455Z,6.40
2022-12-25T03:14:16.631Z,6.20
2022-12-25T03:16:50.950Z,6.30
2022-12-25T03:19:37.828Z,6.30
2022-12-25T03:22:25.468Z,6.30
2022-12-25T03:25:11.567Z,6.30
2022-12-25T03:27:40.578Z,6.40
2022-12-25T03:30:27.343Z,6.40
2022-12-25T03:33:09.537Z,6.30
2022-12-25T03:35:48.320Z,6.50
2022-12-25T03:38:49.882Z,6.40
2022-12-25T03:41:50.519Z,6.30
2022-12-25T03:44:39.595Z,6.10
2022-12-25T03:47:32.157Z,6.10
2022-12-25T03:50:23.832Z,6.30
2022-12-25T03:53:11.856Z,6.20
2022-12-25T03:55:58.399Z,6.20
2022-12-25T03:58:45.119Z,6.10
2022-12-25T04:01:31.925Z,6.00
2022-12-25T04:04:18.298Z,6.00
2022-12-25T04:07:04.120Z,6.10
2022-12-25T04:09:50.327Z,6.10
2022-12-25T04:12:36.475Z,6.10
2022-12-25T04:15:22.688Z,6.20
2022-12-25T04:18:10.705Z,6.10
2022-12-25T04:20:56.841Z,6.10
2022-12-25T04:23:42.913Z,6.20
2022-12-25T04:26:29.096Z,6.20
2022-12-25T04:29:15.171Z,6.20
2022-12-25T04:32:01.216Z,6.30
2022-12-25T04:34:47.413Z,6.30
2022-12-25T04:37:14.991Z,6.20
2022-12-25T04:39:42.459Z,6.10
2022-12-25T04:42:10.014Z,6.20
2022-12-25T04:44:37.591Z,6.20
2022-12-25T04:47:10.920Z,6.30
2022-12-25T04:49:39.493Z,6.30
2022-12-25T04:52:06.932Z,6.20
2022-12-25T04:54:34.464Z,6.20
2022-12-25T04:57:01.939Z,6.10
2022-12-25T04:59:29.502Z,6.00
2022-12-25T05:01:57.047Z,5.90
2022-12-25T05:04:24.857Z,6.10
2022-12-25T05:06:52.378Z,6.20
2022-12-25T05:09:19.894Z,6.10
2022-12-25T05:11:47.707Z,6.00
2022-12-25T05:14:15.346Z,5.90
2022-12-25T05:16:42.935Z,5.80
2022-12-25T05:19:10.836Z,5.90
2022-12-25T05:21:38.226Z,6.10
2022-12-25T05:24:05.738Z,6.10
2022-12-25T05:26:33.175Z,6.10
2022-12-25T05:29:00.613Z,6.10
2022-12-25T05:31:28.082Z,6.10
2022-12-25T05:33:55.709Z,6.00
2022-12-25T05:36:23.121Z,5.70
2022-12-25T05:38:50.804Z,5.60
2022-12-25T05:41:18.331Z,5.50
2022-12-25T05:43:45.827Z,5.60
2022-12-25T05:46:13.453Z,5.70
2022-12-25T05:48:40.942Z,5.90
2022-12-25T05:51:13.522Z,5.70
2022-12-25T05:53:41.647Z,5.70
2022-12-25T05:56:09.394Z,5.60
2022-12-25T05:58:38.118Z,5.70
2022-12-25T06:01:10.546Z,5.80
2022-12-25T06:03:38.156Z,5.90
2022-12-25T06:06:07.434Z,5.90
2022-12-25T06:08:35.078Z,5.80
2022-12-25T06:11:03.678Z,5.80
2022-12-25T06:13:31.817Z,5.80
2022-12-25T06:15:59.682Z,5.80
2022-12-25T06:18:27.203Z,5.90
2022-12-25T06:20:54.846Z,5.90
2022-12-25T06:23:22.480Z,6.00
2022-12-25T06:25:49.882Z,6.10
2022-12-25T06:28:17.417Z,6.10
2022-12-25T06:30:44.872Z,6.20
2022-12-25T06:33:12.418Z,6.20
2022-12-25T06:35:40.458Z,6.20
2022-12-25T06:38:07.909Z,6.30
2022-12-25T06:40:35.465Z,6.30
2022-12-25T06:43:03.125Z,6.30
2022-12-25T06:45:30.630Z,6.30
2022-12-25T06:47:58.122Z,6.20
2022-12-25T06:50:25.661Z,6.20
2022-12-25T06:52:53.056Z,6.20
2022-12-25T06:55:20.576Z,6.30
2022-12-25T06:57:48.002Z,6.30
2022-12-25T07:00:15.694Z,6.40
2022-12-25T07:02:45.194Z,6.40
2022-12-25T07:05:12.812Z,6.40
2022-12-25T07:07:40.281Z,6.40
2022-12-25T07:10:08.066Z,6.50
2022-12-25T07:12:35.676Z,6.70
2022-12-25T07:15:03.222Z,6.60
2022-12-25T07:17:30.745Z,6.70
2022-12-25T07:19:58.172Z,6.80
2022-12-25T07:22:25.730Z,6.80
2022-12-25T07:24:53.187Z,6.70
2022-12-25T07:27:20.627Z,6.70
2022-12-25T07:29:48.107Z,6.80
2022-12-25T07:32:15.715Z,7.10
2022-12-25T07:34:43.184Z,7.10
2022-12-25T07:37:10.843Z,7.00
2022-12-25T07:39:38.368Z,6.90
2022-12-25T07:42:05.792Z,7.10
2022-12-25T07:44:33.248Z,7.00
2022-12-25T07:47:00.714Z,6.90
2022-12-25T07:49:28.224Z,6.90
2022-12-25T07:51:55.975Z,6.80
2022-12-25T07:54:23.700Z,6.80
2022-12-25T07:56:54.050Z,6.90
2022-12-25T07:59:21.618Z,6.90
2022-12-25T08:01:50.567Z,6.90
2022-12-25T08:04:18.425Z,7.00
2022-12-25T08:06:46.038Z,7.10
2022-12-25T08:09:13.935Z,7.10
2022-12-25T08:11:45.028Z,7.20
2022-12-25T08:14:13.135Z,7.30
2022-12-25T08:16:41.847Z,7.50
2022-12-25T08:19:09.682Z,7.40
2022-12-25T08:21:37.577Z,7.50
2022-12-25T08:24:05.243Z,7.50
2022-12-25T08:26:32.812Z,7.50
2022-12-25T08:29:00.246Z,7.60
2022-12-25T08:31:28.953Z,7.80
2022-12-25T08:33:57.475Z,7.80
2022-12-25T08:36:25.396Z,7.90
2022-12-25T08:38:56.969Z,8.10
2022-12-25T08:41:24.914Z,8.10
2022-12-25T08:43:52.371Z,8.30
2022-12-25T08:46:20.165Z,8.10
2022-12-25T08:48:48.979Z,8.10
2022-12-25T08:51:17.911Z,8.40
2022-12-25T08:53:46.480Z,8.60
2022-12-25T08:56:14.175Z,8.60
2022-12-25T08:58:41.909Z,8.60
2022-12-25T09:01:09.430Z,8.40
2022-12-25T09:03:37.170Z,8.40
2022-12-25T09:06:06.176Z,8.40
2022-12-25T09:08:34.715Z,8.40
2022-12-25T09:11:03.208Z,8.70
2022-12-25T09:13:30.798Z,8.50
2022-12-25T09:15:59.321Z,8.50
2022-12-25T09:18:26.893Z,8.70
2022-12-25T09:20:58.664Z,8.70
2022-12-25T09:23:26.440Z,8.60
2022-12-25T09:25:53.981Z,8.70
2022-12-25T09:28:22.233Z,8.80
2022-12-25T09:30:50.669Z,8.70
2022-12-25T09:33:18.615Z,8.70
2022-12-25T09:35:56.771Z,8.90
2022-12-25T09:38:24.421Z,8.80
2022-12-25T09:41:02.648Z,9.00
2022-12-25T09:43:32.367Z,9.20
2022-12-25T09:46:00.615Z,9.30
2022-12-25T09:48:30.669Z,9.40
2022-12-25T09:51:02.526Z,9.30
2022-12-25T09:53:40.064Z,9.10
2022-12-25T09:56:17.007Z,9.10
2022-12-25T09:58:45.017Z,9.10
2022-12-25T10:01:12.524Z,9.20
2022-12-25T10:04:12.470Z,9.30
2022-12-25T10:07:00.032Z,9.40
2022-12-25T10:09:30.488Z,9.40
2022-12-25T10:12:03.962Z,9.50
2022-12-25T10:14:46.859Z,9.50
2022-12-25T10:17:29.947Z,9.70
2022-12-25T10:20:20.826Z,9.60
2022-12-25T10:22:50.367Z,9.70
2022-12-25T10:25:19.684Z,9.80
2022-12-25T10:27:49.729Z,9.90
2022-12-25T10:30:20.753Z,9.70
2022-12-25T10:32:48.868Z,9.80
2022-12-25T10:35:18.991Z,9.90
2022-12-25T10:37:49.019Z,9.80
2022-12-25T10:40:25.837Z,9.80
2022-12-25T10:42:55.675Z,9.80
2022-12-25T10:45:23.123Z,9.90
2022-12-25T10:47:59.530Z,10.00
2022-12-25T10:50:29.583Z,10.00
2022-12-25T10:53:09.450Z,10.10
2022-12-25T10:55:37.176Z,10.00
2022-12-25T10:58:06.422Z,10.10
2022-12-25T11:00:33.962Z,10.10
2022-12-25T11:03:01.729Z,10.20
2022-12-25T11:05:31.426Z,10.20
2022-12-25T11:08:00.359Z,10.20
2022-12-25T11:10:34.875Z,10.30
2022-12-25T11:13:03.405Z,10.50
2022-12-25T11:15:34.093Z,10.60
2022-12-25T11:18:01.631Z,10.70
2022-12-25T11:20:29.067Z,10.70
2022-12-25T11:22:56.595Z,10.70
2022-12-25T11:25:25.731Z,10.50
2022-12-25T11:28:00.483Z,10.70
2022-12-25T11:30:30.145Z,10.60
2022-12-25T11:32:59.420Z,10.60
2022-12-25T11:35:30.645Z,10.70
2022-12-25T11:37:58.149Z,10.80
2022-12-25T11:40:29.227Z,10.90
2022-12-25T11:43:32.688Z,11.10
2022-12-25T11:46:08.740Z,11.10
2022-12-25T11:48:45.097Z,11.00
2022-12-25T11:51:13.308Z,11.00
2022-12-25T11:54:01.071Z,10.90
2022-12-25T11:56:30.561Z,11.00
2022-12-25T11:59:03.886Z,10.90
2022-12-25T12:01:35.650Z,10.90
2022-12-25T12:04:06.253Z,10.90
2022-12-25T12:06:45.867Z,11.10
2022-12-25T12:09:16.346Z,11.10
2022-12-25T12:11:46.878Z,11.20
2022-12-25T12:14:27.956Z,11.10
2022-12-25T12:16:55.667Z,11.00
2022-12-25T12:19:27.600Z,11.10
2022-12-25T12:22:02.923Z,11.20
2022-12-25T12:24:41.202Z,11.20
2022-12-25T12:27:14.761Z,11.30
2022-12-25T12:29:48.445Z,11.20
2022-12-25T12:32:28.243Z,11.30
2022-12-25T12:34:56.741Z,11.40
2022-12-25T12:37:30.268Z,11.20
2022-12-25T12:39:58.042Z,11.20
2022-12-25T12:42:26.854Z,11.30
2022-12-25T12:44:55.935Z,11.40
2022-12-25T12:47:38.947Z,11.30
2022-12-25T12:50:07.346Z,11.30
2022-12-25T12:52:38.746Z,11.20
2022-12-25T12:55:08.000Z,11.20
2022-12-25T12:57:40.141Z,11.40
2022-12-25T13:00:27.236Z,11.40
2022-12-25T13:03:24.215Z,11.40
2022-12-25T13:05:58.072Z,11.60
2022-12-25T13:08:42.895Z,11.50
2022-12-25T13:11:30.349Z,11.40
2022-12-25T13:14:00.273Z,11.40
2022-12-25T13:16:35.109Z,11.40
2022-12-25T13:19:11.685Z,11.30
2022-12-25T13:21:39.354Z,11.40
2022-12-25T13:24:18.037Z,11.40
2022-12-25T13:26:45.560Z,11.40
2022-12-25T13:29:23.012Z,11.40
2022-12-25T13:31:50.650Z,11.40
2022-12-25T13:34:24.573Z,11.40
2022-12-25T13:36:52.012Z,11.40
2022-12-25T13:39:19.503Z,11.40
2022-12-25T13:42:06.896Z,11.40
2022-12-25T13:44:45.556Z,11.40
2022-12-25T13:47:24.068Z,11.40
2022-12-25T13:49:52.708Z,11.40
2022-12-25T13:52:21.999Z,11.40
2022-12-25T13:55:16.028Z,11.40
2022-12-25T13:57:49.635Z,11.30
2022-12-25T14:00:18.988Z,11.40
2022-12-25T14:02:47.104Z,11.30
2022-12-25T14:05:37.676Z,11.30
2022-12-25T14:08:17.041Z,11.30
2022-12-25T14:10:46.223Z,11.20
2022-12-25T14:13:16.496Z,11.20
2022-12-25T14:15:45.154Z,11.20
2022-12-25T14:18:19.559Z,11.20
2022-12-25T14:21:01.614Z,11.20
2022-12-25T14:23:43.053Z,11.20
2022-12-25T14:26:17.516Z,11.20
2022-12-25T14:28:49.445Z,11.10
2022-12-25T14:31:17.130Z,11.10
2022-12-25T14:33:45.030Z,11.10
2022-12-25T14:36:13.583Z,11.10
2022-12-25T14:38:42.649Z,11.00
2022-12-25T14:41:33.561Z,10.90
2022-12-25T14:44:02.580Z,10.90
2022-12-25T14:46:31.502Z,10.90
2022-12-25T14:49:03.028Z,10.90
2022-12-25T14:51:31.726Z,10.90
2022-12-25T14:54:01.613Z,10.90
2022-12-25T14:56:33.299Z,10.90
2022-12-25T14:59:00.945Z,10.90
2022-12-25T15:01:35.712Z,10.80
2022-12-25T15:04:13.209Z,10.90
2022-12-25T15:06:52.667Z,10.90
2022-12-25T15:09:21.130Z,10.90
2022-12-25T15:11:51.792Z,10.90
2022-12-25T15:14:19.418Z,10.90
2022-12-25T15:16:49.554Z,11.00
2022-12-25T15:19:23.482Z,11.00
2022-12-25T15:21:53.457Z,10.90
2022-12-25T15:24:20.965Z,10.90
2022-12-25T15:26:48.457Z,11.00
2022-12-25T15:29:16.234Z,11.10
2022-12-25T15:31:43.749Z,11.20
2022-12-25T15:34:21.057Z,11.10
2022-12-25T15:36:48.670Z,11.00
2022-12-25T15:39:16.491Z,11.10
2022-12-25T15:42:02.583Z,11.10
2022-12-25T15:44:30.305Z,11.10
2022-12-25T15:46:58.496Z,11.20
2022-12-25T15:49:26.169Z,11.20
2022-12-25T15:51:53.956Z,11.20
2022-12-25T15:54:21.703Z,11.10
2022-12-25T15:56:50.708Z,11.00
2022-12-25T15:59:19.183Z,10.90
2022-12-25T16:01:48.839Z,10.80
2022-12-25T16:04:16.718Z,10.70
2022-12-25T16:06:44.479Z,10.70
2022-12-25T16:09:12.641Z,10.70
2022-12-25T16:11:40.873Z,10.70
2022-12-25T16:14:08.765Z,10.70
2022-12-25T16:16:36.539Z,10.70
2022-12-25T16:19:04.318Z,10.70
2022-12-25T16:21:43.464Z,10.90
2022-12-25T16:24:11.307Z,11.00
2022-12-25T16:26:39.006Z,10.90
2022-12-25T16:29:07.690Z,11.00
2022-12-25T16:31:36.601Z,10.90
2022-12-25T16:34:05.056Z,11.00
2022-12-25T16:36:32.656Z,10.90
2022-12-25T16:39:00.205Z,10.80
2022-12-25T16:41:27.878Z,11.00
2022-12-25T16:43:55.700Z,11.00
2022-12-25T16:46:23.849Z,10.90
2022-12-25T16:48:51.534Z,10.90
2022-12-25T16:51:20.585Z,11.00
2022-12-25T16:53:48.654Z,11.10
2022-12-25T16:56:17.692Z,11.10
2022-12-25T16:58:48.926Z,11.00
2022-12-25T17:01:17.833Z,10.90
2022-12-25T17:03:46.169Z,11.00
2022-12-25T17:06:15.115Z,10.90
2022-12-25T17:08:43.009Z,10.80
2022-12-25T17:11:10.639Z,10.70
2022-12-25T17:13:38.095Z,10.50
2022-12-25T17:16:16.126Z,10.60
2022-12-25T17:18:43.721Z,10.60
2022-12-25T17:21:11.588Z,10.70
2022-12-25T17:23:39.384Z,10.80
2022-12-25T17:26:06.932Z,10.80
2022-12-25T17:28:34.879Z,10.90
2022-12-25T17:31:06.435Z,10.70
2022-12-25T17:33:38.224Z,10.50
2022-12-25T17:36:07.591Z,10.50
2022-12-25T17:38:36.956Z,10.60
2022-12-25T17:41:05.685Z,10.70
2022-12-25T17:43:33.719Z,10.60
2022-12-25T17:46:08.157Z,10.60
2022-12-25T17:48:36.381Z,10.60
2022-12-25T17:51:04.674Z,10.50
2022-12-25T17:53:32.433Z,10.60
2022-12-25T17:56:00.706Z,10.70
2022-12-25T17:58:28.193Z,10.70
2022-12-25T18:00:56.418Z,10.70
2022-12-25T18:03:24.445Z,10.70
2022-12-25T18:05:53.575Z,10.50
2022-12-25T18:08:24.478Z,10.40
2022-12-25T18:10:55.478Z,10.30
2022-12-25T18:13:23.668Z,10.30
2022-12-25T18:15:51.651Z,10.20
2022-12-25T18:18:19.478Z,10.40
2022-12-25T18:20:47.472Z,10.40
2022-12-25T18:23:15.307Z,10.30
2022-12-25T18:25:43.215Z,10.20
2022-12-25T18:28:11.714Z,10.20
2022-12-25T18:30:40.553Z,10.20
2022-12-25T18:33:08.524Z,10.20
2022-12-25T18:35:38.871Z,10.40
2022-12-25T18:38:06.675Z,10.40
2022-12-25T18:40:34.192Z,10.30
2022-12-25T18:43:03.593Z,10.30
2022-12-25T18:45:31.822Z,10.40
2022-12-25T18:48:03.576Z,10.50
2022-12-25T18:50:31.650Z,10.50
2022-12-25T18:52:59.353Z,10.40
2022-12-25T18:55:27.363Z,10.30
2022-12-25T18:57:55.763Z,10.20
2022-12-25T19:00:24.193Z,10.20
2022-12-25T19:02:56.046Z,10.20
2022-12-25T19:05:23.947Z,10.20
2022-12-25T19:07:51.923Z,10.20
2022-12-25T19:10:19.917Z,10.30
2022-12-25T19:12:47.596Z,10.40
2022-12-25T19:15:15.336Z,10.40
2022-12-25T19:17:43.378Z,10.50
2022-12-25T19:20:11.620Z,10.50
2022-12-25T19:22:39.563Z,10.30
2022-12-25T19:25:07.558Z,10.20
2022-12-25T19:27:35.415Z,10.10
2022-12-25T19:30:03.339Z,10.30
2022-12-25T19:32:31.213Z,10.30
2022-12-25T19:35:04.724Z,10.30
2022-12-25T19:37:32.626Z,10.30
2022-12-25T19:40:00.849Z,10.30
2022-12-25T19:42:28.722Z,10.30
2022-12-25T19:44:56.173Z,10.30
2022-12-25T19:47:23.662Z,10.40
2022-12-25T19:49:53.338Z,10.40
2022-12-25T19:52:21.971Z,10.30
2022-12-25T19:54:51.452Z,10.20
2022-12-25T19:57:19.072Z,10.30
2022-12-25T19:59:46.687Z,10.40
2022-12-25T20:02:14.645Z,10.40
2022-12-25T20:04:42.379Z,10.20
2022-12-25T20:07:09.964Z,10.10
2022-12-25T20:09:37.788Z,10.10
2022-12-25T20:12:06.072Z,10.10
2022-12-25T20:14:33.661Z,10.10
2022-12-25T20:17:01.293Z,10.00
2022-12-25T20:19:28.914Z,10.00
2022-12-25T20:21:56.481Z,10.00
2022-12-25T20:24:24.844Z,10.00
2022-12-25T20:26:58.603Z,10.00
2022-12-25T20:29:26.641Z,9.90
2022-12-25T20:31:54.291Z,9.90
2022-12-25T20:34:21.974Z,10.10
2022-12-25T20:36:49.474Z,10.20
2022-12-25T20:39:16.975Z,10.10
2022-12-25T20:41:44.733Z,10.10
2022-12-25T20:44:13.376Z,10.10
2022-12-25T20:46:41.422Z,10.20
2022-12-25T20:49:09.686Z,10.30
2022-12-25T20:51:37.243Z,10.30
2022-12-25T20:54:06.791Z,10.30
2022-12-25T20:56:34.989Z,10.30
2022-12-25T20:59:02.762Z,10.20
2022-12-25T21:01:31.160Z,10.20
2022-12-25T21:03:59.349Z,10.20
2022-12-25T21:06:27.047Z,10.30
2022-12-25T21:08:54.801Z,10.30
2022-12-25T21:11:22.733Z,10.20
2022-12-25T21:13:50.332Z,10.10
2022-12-25T21:16:20.177Z,10.20
2022-12-25T21:18:48.518Z,10.30
2022-12-25T21:21:16.421Z,10.30
2022-12-25T21:23:45.854Z,10.20
2022-12-25T21:26:15.756Z,10.20
2022-12-25T21:28:43.272Z,10.10
2022-12-25T21:31:12.040Z,10.10
2022-12-25T21:33:51.983Z,10.20
2022-12-25T21:36:31.585Z,10.10
2022-12-25T21:38:59.385Z,10.10
2022-12-25T21:41:27.544Z,10.20
2022-12-25T21:43:55.315Z,10.20
2022-12-25T21:46:23.065Z,10.20
2022-12-25T21:48:50.637Z,10.20
2022-12-25T21:51:37.722Z,10.20
2022-12-25T21:54:05.436Z,10.10
2022-12-25T21:56:38.478Z,10.10
2022-12-25T21:59:12.394Z,10.10
2022-12-25T22:01:39.919Z,10.10
2022-12-25T22:04:08.617Z,10.00
2022-12-25T22:06:54.759Z,10.00
2022-12-25T22:09:23.022Z,10.10
2022-12-25T22:12:09.044Z,10.10
2022-12-25T22:14:59.181Z,10.20
2022-12-25T22:17:49.930Z,10.20
2022-12-25T22:20:20.625Z,10.20
2022-12-25T22:22:48.267Z,10.10
2022-12-25T22:25:16.201Z,10.00
2022-12-25T22:27:44.486Z,9.90
2022-12-25T22:30:13.814Z,9.90
2022-12-25T22:32:41.603Z,9.80
2022-12-25T22:35:09.789Z,9.80
2022-12-25T22:37:38.535Z,10.00
2022-12-25T22:40:06.599Z,10.00
2022-12-25T22:42:34.355Z,9.90
2022-12-25T22:45:02.043Z,9.90
2022-12-25T22:47:29.619Z,9.80
2022-12-25T22:49:57.225Z,10.00
2022-12-25T22:52:24.886Z,9.90
2022-12-25T22:54:52.360Z,9.80
2022-12-25T22:57:19.851Z,9.70
2022-12-25T22:59:47.348Z,9.70
2022-12-25T23:02:15.176Z,9.70
2022-12-25T23:04:42.772Z,9.70
2022-12-25T23:07:11.060Z,9.70
2022-12-25T23:09:38.667Z,9.60
2022-12-25T23:12:06.459Z,9.70
2022-12-25T23:14:39.619Z,9.80
2022-12-25T23:17:30.456Z,10.00
2022-12-25T23:20:17.789Z,9.90
2022-12-25T23:23:03.734Z,9.80
2022-12-25T23:25:49.780Z,9.70
2022-12-25T23:28:40.303Z,9.90
2022-12-25T23:31:08.009Z,9.90
2022-12-25T23:33:35.595Z,9.80
2022-12-25T23:36:03.186Z,9.70
2022-12-25T23:38:30.728Z,9.70
2022-12-25T23:40:58.143Z,9.90
2022-12-25T23:43:25.833Z,10.00
2022-12-25T23:45:53.453Z,10.00
2022-12-25T23:48:21.305Z,10.00
2022-12-25T23:50:49.014Z,10.00
2022-12-25T23:53:16.625Z,10.10
2022-12-25T23:55:45.747Z,10.00
2022-12-25T23:58:16.215Z,10.10
